Terminal Aerodrome Forecast
Issued by NWS

Home | Current Version | Previous Version | Text Only | Print | Product List | Glossary On
Versions: 1 2 3 4 5 6 7 8 9 10 11 12 13 14 15 16 17 18 19 20 21 22 23
000
FTUS43 KSGF 180500
TAFJLN
TAF
KJLN 180520Z 1806/1906 15003KT P6SM SCT050 OVC150
     FM180900 15006KT P6SM VCSH BKN050 OVC080
     FM181200 16007KT 6SM -SHRA BR VCTS BKN035CB OVC050
      TEMPO 1812/1816 3SM TSRA BR OVC020CB
     FM181800 18009KT P6SM VCTS SCT020 OVC040CB
     FM190000 12006KT P6SM OVC050 PROB30 1900/1906 6SM -TSRA BR
      OVC035CB=

USA.gov is the U.S. government's official web portal to all federal, state and local government web resources and services.